ADDS METAR Data INFO
IDs: Format: Raw Decoded Include TAF

Data at: 0734 UTC 18 Oct 2017

KAUH 180715Z AUTO 19007KT 10SM CLR 11/07 A2993 RMK AO2 T01070070
KAUH 180655Z AUTO 19006KT 10SM CLR 11/07 A2993 RMK AO2 T01110070
KAUH 180635Z AUTO 20007KT 10SM CLR 12/07 A2993 RMK AO2 T01150070
KAUH 180615Z AUTO 19008KT 10SM CLR 12/07 A2993 RMK AO2 T01200070
KAUH 180555Z AUTO 19008KT 10SM CLR 13/07 A2994 RMK AO2 T01250069 10198 20125 402580043
KAUH 180535Z AUTO 19008KT 10SM CLR 13/07 A2995 RMK AO2 T01300067
KAUH 180515Z AUTO 19010KT 10SM CLR 13/07 A2995 RMK AO2 T01320066
KAUH 180455Z AUTO 19008KT 10SM CLR 14/07 A2996 RMK AO2 T01380066
KAUH 180435Z AUTO 18005KT 10SM CLR 13/06 A2996 RMK AO2 T01280062
KAUH 180415Z AUTO 18006KT 10SM CLR 14/06 A2997 RMK AO2 T01380063
KAUH 180355Z AUTO 17005KT 10SM CLR 13/06 A2998 RMK AO2 T01300060
KAUH 180335Z AUTO 17004KT 10SM CLR 14/06 A2998 RMK AO2 T01370060
KAUH 180315Z AUTO 18006KT 10SM CLR 15/06 A2998 RMK AO2 T01470061
KAUH 180255Z AUTO 18006KT 10SM CLR 15/06 A2999 RMK AO2 T01500061
KAUH 180235Z AUTO 18007KT 10SM CLR 15/06 A2999 RMK AO2 T01510062
KAUH 180215Z AUTO 18005KT 10SM CLR 15/06 A2999 RMK AO2 T01540062
KAUH 180200Z AUTO 18006KT 10SM CLR 16/06 A2999 RMK AO2 T01590061
KAUH 180135Z AUTO 18006KT 10SM CLR 16/06 A2999 RMK AO2 T01640060
KAUH 180115Z AUTO 18005KT 10SM CLR 18/06 A2999 RMK AO2 T01760056
KAUH 180055Z AUTO 18006KT 10SM CLR 18/05 A2999 RMK AO2 T01840051
KAUH 180035Z AUTO 17005KT 10SM CLR 19/05 A2999 RMK AO2 T01860047
KAUH 180015Z AUTO 17005KT 10SM CLR 19/05 A2998 RMK AO2 T01900045
KAUH 172355Z AUTO 16004KT 10SM CLR 20/04 A2998 RMK AO2 T01990036 10258 20199
KAUH 172335Z AUTO 17004KT 10SM CLR 21/04 A2998 RMK AO2 T02090041
KAUH 172315Z AUTO 18006KT 10SM CLR 23/04 A2998 RMK AO2 T02260043
KAUH 172255Z AUTO 17005KT 10SM CLR 24/04 A2998 RMK AO2 T02400039
KAUH 172235Z AUTO 14004KT 1 1/2SM HZ VV007 25/02 A2998 RMK AO2 T02500024
KAUH 172215Z AUTO 00000KT 7SM CLR 25/02 A2999 RMK AO2 T02540016
KAUH 172155Z AUTO 00000KT 10SM CLR 26/03 A2999 RMK AO2 T02550025
KAUH 172135Z AUTO 17004KT 10SM CLR 26/04 A3000 RMK AO2 T02550037
KAUH 172115Z AUTO 00000KT 10SM CLR 26/02 A3000 RMK AO2 T02550021
KAUH 172055Z AUTO 00000KT 10SM CLR 25/02 A3000 RMK AO2 T02530018
KAUH 172035Z AUTO 00000KT 10SM CLR 25/02 A3001 RMK AO2 T02540024
KAUH 172015Z AUTO 00000KT 10SM CLR 25/03 A3001 RMK AO2 T02520025
KAUH 171955Z AUTO 00000KT 10SM CLR 25/05 A3002 RMK AO2 T02490046
KAUH 171935Z AUTO 00000KT 10SM CLR 25/05 A3003 RMK AO2 T02450047
KAUH 171915Z AUTO 00000KT 10SM CLR 24/05 A3004 RMK AO2 T02420048
KAUH 171855Z AUTO 00000KT 10SM CLR 24/07 A3005 RMK AO2 T02400065
KAUH 171835Z AUTO 00000KT 10SM CLR 23/06 A3006 RMK AO2 T02340055
KAUH 171815Z AUTO 00000KT 10SM CLR 23/05 A3007 RMK AO2 T02250050
KAUH 171755Z AUTO 00000KT 10SM CLR 22/05 A3008 RMK AO2 T02220050 10222 20043
KAUH 171735Z AUTO 00000KT 10SM CLR 22/05 A3008 RMK AO2 T02150047
KAUH 171715Z AUTO 00000KT 10SM CLR 20/05 A3009 RMK AO2 T02030049
KAUH 171655Z AUTO 00000KT 10SM CLR 20/05 A3009 RMK AO2 T01950051
KAUH 171635Z AUTO 00000KT 10SM CLR 18/05 A3009 RMK AO2 T01830047
KAUH 171615Z AUTO 00000KT 10SM CLR 18/05 A3009 RMK AO2 T01770051
KAUH 171555Z AUTO 00000KT 10SM CLR 16/05 A3010 RMK AO2 T01630051
KAUH 171535Z AUTO 00000KT 10SM CLR 15/05 A3010 RMK AO2 T01460053
KAUH 171515Z AUTO 32003KT 10SM CLR 13/05 A3010 RMK AO2 T01300052
KAUH 171455Z AUTO 30003KT 10SM CLR 11/05 A3010 RMK AO2 T01060051
KAUH 171435Z AUTO 31003KT 10SM CLR 09/05 A3010 RMK AO2 T00910046
KAUH 171415Z AUTO 00000KT 10SM CLR 08/04 A3010 RMK AO2 T00790042
KAUH 171355Z AUTO 00000KT 10SM CLR 07/04 A3009 RMK AO2 T00670041
KAUH 171335Z AUTO 00000KT 10SM CLR 06/03 A3009 RMK AO2 T00560034
KAUH 171315Z AUTO 00000KT 10SM CLR 05/03 A3009 RMK AO2 T00460027
KAUH 171255Z AUTO 22004KT 10SM CLR 05/03 A3009 RMK AO2 T00470027
KAUH 171235Z AUTO 21003KT 10SM CLR 06/03 A3008 RMK AO2 T00550030
KAUH 171215Z AUTO 22005KT 10SM CLR 05/03 A3008 RMK AO2 T00530030
KAUH 171155Z AUTO 21005KT 10SM CLR 06/03 A3009 RMK AO2 T00550030 10122 20051
KAUH 171135Z AUTO 00000KT 10SM CLR 05/03 A3008 RMK AO2 T00520028
KAUH 171115Z AUTO 00000KT 10SM CLR 06/03 A3008 RMK AO2 T00560031
KAUH 171055Z AUTO 23004KT 10SM CLR 06/03 A3008 RMK AO2 T00610032
KAUH 171035Z AUTO 23003KT 10SM CLR 07/04 A3008 RMK AO2 T00700035
KAUH 171015Z AUTO 23004KT 10SM CLR 07/04 A3008 RMK AO2 T00720035
KAUH 170955Z AUTO 22005KT 10SM CLR 08/04 A3007 RMK AO2 T00770035
KAUH 170935Z AUTO 23004KT 10SM CLR 08/04 A3007 RMK AO2 T00840035
KAUH 170915Z AUTO 21006KT 10SM CLR 09/04 A3007 RMK AO2 T00870037
KAUH 170855Z AUTO 21006KT 10SM CLR 09/04 A3007 RMK AO2 T00900036
KAUH 170835Z AUTO 22006KT 10SM CLR 10/04 A3008 RMK AO2 T00970035
KAUH 170815Z AUTO 21008KT 10SM CLR 10/04 A3008 RMK AO2 T01010036
KAUH 170755Z AUTO 20008KT 10SM CLR 11/04 A3007 RMK AO2 T01060036
KAUH 170735Z AUTO 21009KT 10SM CLR 11/04 A3008 RMK AO2 T01100035
KAUH 170715Z AUTO 20008KT 10SM CLR 11/04 A3008 RMK AO2 T01090035
KAUH 170655Z AUTO 21008KT 10SM CLR 11/04 A3008 RMK AO2 T01130035
KAUH 170635Z AUTO 20009KT 10SM CLR 12/04 A3008 RMK AO2 T01180035
KAUH 170615Z AUTO 19009KT 10SM CLR 12/04 A3008 RMK AO2 T01200035
KAUH 170555Z AUTO 20012KT 10SM CLR 12/03 A3008 RMK AO2 T01200033 10187 20120 402360021
KAUH 170535Z AUTO 19010KT 10SM CLR 12/03 A3009 RMK AO2 T01200033
KAUH 170515Z AUTO 20010KT 10SM CLR 12/03 A3009 RMK AO2 T01220033
KAUH 170455Z AUTO 19009KT 10SM CLR 13/03 A3010 RMK AO2 T01250032
KAUH 170435Z AUTO 19008KT 10SM CLR 13/03 A3010 RMK AO2 T01280031
KAUH 170415Z AUTO 19009G15KT 10SM CLR 13/03 A3010 RMK AO2 T01320030
KAUH 170355Z AUTO 20010G15KT 10SM CLR 13/03 A3010 RMK AO2 T01340028
KAUH 170335Z AUTO 19010KT 10SM CLR 14/03 A3010 RMK AO2 T01350027
KAUH 170315Z AUTO 19010KT 10SM CLR 14/03 A3010 RMK AO2 T01380025
KAUH 170255Z AUTO 19010KT 10SM CLR 14/03 A3010 RMK AO2 T01400025
KAUH 170235Z AUTO 19010KT 10SM CLR 15/02 A3010 RMK AO2 T01450023
KAUH 170215Z AUTO 18010KT 10SM CLR 15/02 A3009 RMK AO2 T01500021
KAUH 170155Z AUTO 18009KT 10SM CLR 16/02 A3009 RMK AO2 T01550020
KAUH 170135Z AUTO 18008KT 10SM CLR 15/02 A3010 RMK AO2 T01510021
KAUH 170115Z AUTO 17006KT 10SM CLR 15/02 A3011 RMK AO2 T01470021
KAUH 170055Z AUTO 17006KT 10SM CLR 15/02 A3011 RMK AO2 T01470021
KAUH 170035Z AUTO 17005KT 10SM CLR 16/02 A3010 RMK AO2 T01640020
KAUH 170015Z AUTO 18007KT 10SM CLR 18/02 A3010 RMK AO2 T01820017
KAUH 162355Z AUTO 19007KT 10SM CLR 19/02 A3010 RMK AO2 T01880020 10236 20188
KAUH 162335Z AUTO 19008KT 10SM CLR 20/02 A3009 RMK AO2 T01980022
KAUH 162315Z AUTO 20009G14KT 10SM CLR 21/02 A3009 RMK AO2 T02100017
KAUH 162255Z AUTO 19009KT 10SM CLR 22/02 A3009 RMK AO2 T02170021
KAUH 162235Z AUTO 20013G22KT 10SM CLR 22/01 A3010 RMK AO2 T02220012
KAUH 162215Z AUTO 20015G21KT 10SM CLR 23/01 A3010 RMK AO2 T02280009
KAUH 162155Z AUTO 20018G22KT 10SM CLR 23/01 A3011 RMK AO2 T02340008
KAUH 162135Z AUTO 21016G22KT 10SM CLR 23/01 A3011 RMK AO2 T02320007
KAUH 162115Z AUTO 21013G24KT 10SM CLR 24/01 A3011 RMK AO2 T02350010
KAUH 162055Z AUTO 21018G23KT 10SM CLR 23/01 A3012 RMK AO2 T02340013
KAUH 162035Z AUTO 21018G24KT 10SM CLR 23/01 A3013 RMK AO2 T02310010
KAUH 162015Z AUTO 20018G23KT 10SM CLR 23/01 A3014 RMK AO2 T02270014
KAUH 161955Z AUTO 21016G24KT 10SM CLR 23/01 A3015 RMK AO2 T02260012
KAUH 161935Z AUTO 20015G21KT 10SM CLR 23/02 A3016 RMK AO2 T02300023